createdAt,value
2023-01-21T00:01:03.870Z,0.38
2023-01-21T00:03:31.330Z,0.37
2023-01-21T00:05:58.561Z,0.36
2023-01-21T00:08:26.752Z,0.35
2023-01-21T00:10:54.749Z,0.34
2023-01-21T00:13:21.913Z,0.30
2023-01-21T00:15:49.169Z,0.30
2023-01-21T00:18:16.223Z,0.29
2023-01-21T00:20:45.483Z,0.29
2023-01-21T00:23:12.451Z,0.29
2023-01-21T00:25:39.588Z,0.29
2023-01-21T00:28:06.615Z,0.29
2023-01-21T00:30:33.717Z,0.31
2023-01-21T00:33:00.793Z,0.33
2023-01-21T00:35:28.381Z,0.35
2023-01-21T00:37:55.363Z,0.37
2023-01-21T00:40:22.496Z,0.39
2023-01-21T00:42:49.490Z,0.40
2023-01-21T00:45:17.034Z,0.39
2023-01-21T00:47:44.331Z,0.37
2023-01-21T00:50:11.334Z,0.36
2023-01-21T00:52:38.545Z,0.37
2023-01-21T00:55:06.197Z,0.36
2023-01-21T00:57:33.604Z,0.39
2023-01-21T01:00:00.892Z,0.41
2023-01-21T01:02:27.987Z,0.42
2023-01-21T01:04:55.018Z,0.43
2023-01-21T01:07:22.214Z,0.45
2023-01-21T01:09:49.298Z,0.46
2023-01-21T01:12:16.262Z,0.47
2023-01-21T01:14:43.391Z,0.46
2023-01-21T01:17:10.441Z,0.46
2023-01-21T01:19:37.395Z,0.46
2023-01-21T01:22:04.439Z,0.47
2023-01-21T01:24:31.667Z,0.47
2023-01-21T01:26:58.731Z,0.48
2023-01-21T01:29:26.250Z,0.47
2023-01-21T01:31:53.406Z,0.46
2023-01-21T01:34:20.489Z,0.46
2023-01-21T01:36:48.869Z,0.46
2023-01-21T01:39:16.017Z,0.48
2023-01-21T01:41:43.141Z,0.50
2023-01-21T01:44:47.334Z,0.50
2023-01-21T01:47:15.316Z,0.49
2023-01-21T01:49:42.685Z,0.50
2023-01-21T01:52:12.496Z,0.50
2023-01-21T01:54:44.811Z,0.51
2023-01-21T01:57:15.554Z,0.51
2023-01-21T01:59:43.078Z,0.52
2023-01-21T02:02:15.317Z,0.54
2023-01-21T02:04:47.449Z,0.54
2023-01-21T02:07:15.525Z,0.54
2023-01-21T02:09:42.788Z,0.54
2023-01-21T02:12:09.851Z,0.54
2023-01-21T02:14:42.376Z,0.55
2023-01-21T02:17:27.384Z,0.55
2023-01-21T02:20:13.079Z,0.54
2023-01-21T02:23:09.456Z,0.53
2023-01-21T02:25:45.223Z,0.54
2023-01-21T02:28:50.577Z,0.54
2023-01-21T02:31:44.119Z,0.55
2023-01-21T02:34:19.088Z,0.56
2023-01-21T02:37:00.406Z,0.57
2023-01-21T02:40:04.994Z,0.57
2023-01-21T02:43:01.178Z,0.58
2023-01-21T02:45:40.173Z,0.59
2023-01-21T02:48:07.156Z,0.59
2023-01-21T02:50:47.897Z,0.59
2023-01-21T02:53:27.062Z,0.60
2023-01-21T02:56:01.235Z,0.61
2023-01-21T02:58:32.840Z,0.62
2023-01-21T03:01:12.496Z,0.64
2023-01-21T03:03:48.624Z,0.66
2023-01-21T03:06:30.844Z,0.67
2023-01-21T03:09:16.781Z,0.67
2023-01-21T03:11:55.702Z,0.67
2023-01-21T03:14:48.946Z,0.69
2023-01-21T03:17:25.343Z,0.71
2023-01-21T03:19:59.273Z,0.72
2023-01-21T03:22:30.902Z,0.73
2023-01-21T03:24:59.799Z,0.74
2023-01-21T03:27:30.485Z,0.74
2023-01-21T03:30:03.310Z,0.75
2023-01-21T03:32:34.296Z,0.75
2023-01-21T03:35:05.415Z,0.76
2023-01-21T03:37:39.704Z,0.76
2023-01-21T03:40:23.536Z,0.78
2023-01-21T03:42:52.250Z,0.78
2023-01-21T03:45:32.597Z,0.79
2023-01-21T03:48:08.802Z,0.80
2023-01-21T03:50:45.124Z,0.80
2023-01-21T03:53:12.428Z,0.81
2023-01-21T03:55:39.385Z,0.82
2023-01-21T03:58:06.511Z,0.83
2023-01-21T04:00:33.825Z,0.82
2023-01-21T04:03:01.086Z,0.83
2023-01-21T04:05:28.257Z,0.83
2023-01-21T04:07:55.536Z,0.83
2023-01-21T04:10:22.499Z,0.84
2023-01-21T04:12:49.632Z,0.85
2023-01-21T04:15:17.169Z,0.84
2023-01-21T04:17:44.382Z,0.84
2023-01-21T04:20:12.157Z,0.85
2023-01-21T04:22:39.357Z,0.85
2023-01-21T04:25:06.821Z,0.85
2023-01-21T04:27:34.004Z,0.84
2023-01-21T04:30:01.120Z,0.83
2023-01-21T04:32:28.205Z,0.83
2023-01-21T04:34:55.350Z,0.83
2023-01-21T04:37:22.561Z,0.81
2023-01-21T04:39:49.712Z,0.83
2023-01-21T04:42:17.220Z,0.83
2023-01-21T04:44:44.555Z,0.83
2023-01-21T04:47:11.689Z,0.82
2023-01-21T04:49:39.028Z,0.82
2023-01-21T04:52:06.194Z,0.82
2023-01-21T04:54:33.308Z,0.83
2023-01-21T04:57:01.307Z,0.83
2023-01-21T04:59:28.510Z,0.81
2023-01-21T05:01:55.988Z,0.77
2023-01-21T05:04:23.113Z,0.75
2023-01-21T05:06:50.473Z,0.74
2023-01-21T05:09:17.719Z,0.74
2023-01-21T05:11:44.955Z,0.75
2023-01-21T05:14:12.219Z,0.76
2023-01-21T05:16:39.288Z,0.76
2023-01-21T05:19:06.329Z,0.77
2023-01-21T05:21:33.638Z,0.78
2023-01-21T05:24:00.721Z,0.80
2023-01-21T05:26:27.927Z,0.79
2023-01-21T05:28:55.102Z,0.78
2023-01-21T05:31:22.325Z,0.77
2023-01-21T05:33:49.764Z,0.78
2023-01-21T05:36:16.909Z,0.78
2023-01-21T05:38:44.152Z,0.79
2023-01-21T05:41:11.362Z,0.79
2023-01-21T05:43:38.610Z,0.79
2023-01-21T05:46:06.242Z,0.78
2023-01-21T05:48:33.409Z,0.79
2023-01-21T05:51:00.584Z,0.80
2023-01-21T05:53:28.594Z,0.81
2023-01-21T05:55:56.694Z,0.82
2023-01-21T05:58:24.730Z,0.83
2023-01-21T06:00:52.262Z,0.83
2023-01-21T06:03:20.018Z,0.84
2023-01-21T06:05:49.159Z,0.85
2023-01-21T06:08:16.903Z,0.85
2023-01-21T06:10:45.088Z,0.86
2023-01-21T06:13:13.783Z,0.87
2023-01-21T06:15:41.109Z,0.88
2023-01-21T06:18:08.586Z,0.88
2023-01-21T06:20:35.817Z,0.88
2023-01-21T06:23:03.849Z,0.89
2023-01-21T06:25:32.405Z,0.89
2023-01-21T06:28:00.783Z,0.90
2023-01-21T06:30:28.060Z,0.91
2023-01-21T06:32:55.497Z,0.93
2023-01-21T06:35:22.753Z,0.95
2023-01-21T06:37:49.814Z,0.98
2023-01-21T06:40:17.668Z,0.99
2023-01-21T06:42:47.930Z,1.01
2023-01-21T06:45:16.824Z,1.02
2023-01-21T06:47:44.999Z,1.03
2023-01-21T06:50:15.880Z,1.05
2023-01-21T06:52:45.284Z,1.08
2023-01-21T06:55:14.724Z,1.09
2023-01-21T06:57:43.349Z,1.09
2023-01-21T07:00:12.418Z,1.12
2023-01-21T07:02:39.698Z,1.16
2023-01-21T07:05:07.627Z,1.20
2023-01-21T07:07:35.573Z,1.26
2023-01-21T07:10:03.747Z,1.30
2023-01-21T07:12:31.776Z,1.35
2023-01-21T07:14:59.053Z,1.41
2023-01-21T07:17:26.444Z,1.46
2023-01-21T07:19:53.499Z,1.46
2023-01-21T07:22:20.516Z,1.45
2023-01-21T07:24:48.469Z,1.50
2023-01-21T07:27:15.775Z,1.56
2023-01-21T07:29:43.725Z,1.62
2023-01-21T07:32:12.071Z,1.68
2023-01-21T07:34:40.200Z,1.74
2023-01-21T07:37:08.748Z,1.76
2023-01-21T07:39:36.993Z,1.76
2023-01-21T07:42:04.396Z,1.74
2023-01-21T07:44:34.775Z,1.72
2023-01-21T07:47:02.790Z,1.74
2023-01-21T07:49:30.036Z,1.77
2023-01-21T07:51:58.071Z,1.80
2023-01-21T07:54:25.283Z,1.85
2023-01-21T07:56:52.350Z,1.89
2023-01-21T07:59:19.545Z,1.92
2023-01-21T08:01:46.875Z,1.96
2023-01-21T08:04:15.997Z,2.00
2023-01-21T08:06:44.119Z,2.05
2023-01-21T08:09:11.358Z,2.08
2023-01-21T08:11:38.542Z,2.12
2023-01-21T08:14:05.906Z,2.17
2023-01-21T08:16:33.135Z,2.23
2023-01-21T08:19:00.316Z,2.28
2023-01-21T08:21:27.650Z,2.35
2023-01-21T08:23:55.452Z,2.39
2023-01-21T08:26:24.834Z,2.44
2023-01-21T08:28:54.718Z,2.49
2023-01-21T08:31:22.573Z,2.51
2023-01-21T08:33:49.753Z,2.56
2023-01-21T08:36:17.228Z,2.61
2023-01-21T08:38:46.676Z,2.68
2023-01-21T08:41:16.122Z,2.77
2023-01-21T08:43:43.234Z,2.86
2023-01-21T08:46:10.492Z,2.97
2023-01-21T08:48:37.873Z,3.10
2023-01-21T08:51:05.244Z,3.24
2023-01-21T08:53:34.163Z,3.34
2023-01-21T08:56:05.011Z,3.43
2023-01-21T08:58:32.609Z,3.55
2023-01-21T09:01:07.144Z,3.69
2023-01-21T09:03:34.229Z,3.92
2023-01-21T09:06:02.212Z,4.13
2023-01-21T09:08:29.780Z,4.37
2023-01-21T09:11:01.721Z,4.67
2023-01-21T09:13:29.351Z,4.99
2023-01-21T09:15:57.306Z,5.26
2023-01-21T09:18:24.977Z,5.40
2023-01-21T09:20:52.811Z,5.44
2023-01-21T09:23:26.457Z,5.42
2023-01-21T09:26:00.381Z,5.40
2023-01-21T09:28:27.799Z,5.28
2023-01-21T09:30:59.404Z,5.27
2023-01-21T09:33:29.547Z,5.29
2023-01-21T09:35:58.768Z,5.29
2023-01-21T09:38:27.141Z,5.26
2023-01-21T09:40:56.584Z,5.14
2023-01-21T09:43:28.751Z,4.95
2023-01-21T09:45:58.052Z,4.81
2023-01-21T09:48:34.695Z,4.76
2023-01-21T09:51:13.382Z,4.79
2023-01-21T09:53:57.292Z,4.80
2023-01-21T09:56:42.367Z,4.84
2023-01-21T09:59:38.191Z,4.91
2023-01-21T10:02:18.103Z,4.90
2023-01-21T10:05:01.267Z,4.98
2023-01-21T10:07:35.541Z,5.12
2023-01-21T10:10:21.523Z,5.22
2023-01-21T10:13:25.279Z,5.31
2023-01-21T10:16:31.256Z,5.38
2023-01-21T10:19:01.067Z,5.43
2023-01-21T10:21:59.839Z,5.41
2023-01-21T10:24:30.148Z,5.28
2023-01-21T10:26:58.991Z,5.24
2023-01-21T10:29:27.192Z,5.25
2023-01-21T10:32:00.889Z,5.31
2023-01-21T10:34:35.571Z,5.45
2023-01-21T10:37:18.736Z,5.64
2023-01-21T10:39:55.337Z,5.78
2023-01-21T10:42:41.280Z,6.12
2023-01-21T10:45:27.389Z,6.73
2023-01-21T10:48:19.158Z,7.24
2023-01-21T10:50:57.167Z,7.52
2023-01-21T10:53:33.167Z,7.72
2023-01-21T10:56:33.523Z,7.83
2023-01-21T10:59:08.133Z,7.86
2023-01-21T11:01:40.200Z,7.95
2023-01-21T11:04:20.985Z,8.20
2023-01-21T11:07:09.728Z,8.46
2023-01-21T11:09:44.601Z,8.64
2023-01-21T11:12:21.095Z,8.65
2023-01-21T11:15:02.720Z,8.60
2023-01-21T11:17:33.732Z,8.74
2023-01-21T11:20:05.002Z,9.34
2023-01-21T11:22:32.555Z,9.87
2023-01-21T11:25:01.765Z,9.82
2023-01-21T11:27:38.066Z,9.46
2023-01-21T11:30:21.107Z,9.27
2023-01-21T11:32:54.405Z,9.52
2023-01-21T11:35:22.994Z,9.75
2023-01-21T11:37:50.176Z,10.25
2023-01-21T11:40:24.915Z,10.55
2023-01-21T11:42:54.777Z,10.34
2023-01-21T11:45:35.768Z,9.95
2023-01-21T11:48:19.306Z,9.63
2023-01-21T11:50:46.580Z,9.41
2023-01-21T11:53:18.924Z,9.29
2023-01-21T11:55:53.917Z,9.20
2023-01-21T11:58:36.818Z,9.10
2023-01-21T12:01:08.034Z,8.98
2023-01-21T12:04:00.093Z,8.87
2023-01-21T12:06:31.906Z,8.61
2023-01-21T12:09:07.296Z,8.37
2023-01-21T12:11:34.320Z,8.20
2023-01-21T12:14:27.417Z,7.98
2023-01-21T12:16:54.711Z,7.71
2023-01-21T12:19:55.284Z,7.36
2023-01-21T12:22:40.891Z,6.98
2023-01-21T12:25:22.323Z,6.94
2023-01-21T12:28:22.168Z,7.85
2023-01-21T12:31:23.259Z,9.67
2023-01-21T12:34:11.672Z,10.38
2023-01-21T12:36:49.271Z,10.54
2023-01-21T12:39:32.188Z,10.79
2023-01-21T12:42:33.565Z,11.64
2023-01-21T12:45:06.211Z,12.75
2023-01-21T12:48:06.469Z,13.14
2023-01-21T12:50:45.745Z,12.82
2023-01-21T12:53:31.675Z,12.49
2023-01-21T12:56:20.299Z,12.09
2023-01-21T12:58:57.487Z,11.55
2023-01-21T13:01:57.123Z,11.01
2023-01-21T13:04:33.655Z,10.58
2023-01-21T13:07:13.198Z,10.32
2023-01-21T13:10:13.107Z,10.17
2023-01-21T13:12:43.757Z,9.93
2023-01-21T13:15:20.781Z,9.76
2023-01-21T13:17:53.420Z,9.86
2023-01-21T13:20:22.210Z,11.07
2023-01-21T13:23:06.557Z,12.81
2023-01-21T13:25:33.611Z,14.98
2023-01-21T13:28:10.897Z,16.69
2023-01-21T13:30:44.839Z,18.23
2023-01-21T13:33:44.300Z,19.17
2023-01-21T13:36:29.987Z,20.14
2023-01-21T13:39:23.225Z,21.13
2023-01-21T13:42:21.084Z,21.91
2023-01-21T13:45:00.562Z,22.43
2023-01-21T13:47:52.035Z,22.82
2023-01-21T13:50:36.175Z,22.73
2023-01-21T13:53:10.386Z,22.09
2023-01-21T13:56:01.077Z,20.85
2023-01-21T13:58:35.498Z,19.23
2023-01-21T14:01:11.361Z,17.94
2023-01-21T14:03:55.188Z,16.82
2023-01-21T14:06:34.419Z,15.74
2023-01-21T14:09:07.564Z,15.36
2023-01-21T14:11:44.181Z,15.57
2023-01-21T14:14:23.634Z,16.04
2023-01-21T14:17:04.288Z,16.54
2023-01-21T14:19:50.161Z,16.91
2023-01-21T14:22:17.551Z,16.65
2023-01-21T14:25:06.678Z,15.97
2023-01-21T14:27:55.121Z,14.94
2023-01-21T14:30:30.809Z,13.97
2023-01-21T14:33:08.829Z,13.12
2023-01-21T14:35:55.074Z,12.33
2023-01-21T14:38:46.368Z,11.45
2023-01-21T14:41:14.199Z,10.64
2023-01-21T14:43:41.631Z,10.07
2023-01-21T14:46:26.709Z,9.57
2023-01-21T14:49:09.950Z,9.05
2023-01-21T14:51:47.645Z,8.49
2023-01-21T14:54:26.719Z,7.99
2023-01-21T14:57:04.174Z,7.47
2023-01-21T14:59:43.036Z,7.02
2023-01-21T15:02:22.896Z,6.56
2023-01-21T15:05:03.399Z,6.16
2023-01-21T15:07:39.170Z,5.88
2023-01-21T15:10:15.574Z,5.65
2023-01-21T15:12:52.366Z,5.43
2023-01-21T15:15:32.628Z,5.18
2023-01-21T15:18:03.532Z,4.94
2023-01-21T15:20:45.190Z,4.71
2023-01-21T15:23:28.733Z,4.43
2023-01-21T15:26:04.915Z,4.24
2023-01-21T15:28:40.358Z,4.07
2023-01-21T15:31:13.734Z,3.89
2023-01-21T15:33:46.919Z,3.74
2023-01-21T15:36:21.808Z,3.57
2023-01-21T15:39:31.844Z,3.42
2023-01-21T15:42:21.917Z,3.24
2023-01-21T15:44:49.643Z,3.06
2023-01-21T15:47:42.387Z,2.79
2023-01-21T15:50:20.459Z,2.55
2023-01-21T15:53:28.039Z,2.43
2023-01-21T15:56:07.789Z,2.29
2023-01-21T15:58:40.665Z,2.22
2023-01-21T16:01:16.650Z,2.14
2023-01-21T16:03:57.939Z,2.08
2023-01-21T16:06:59.120Z,1.98
2023-01-21T16:09:33.456Z,1.86
2023-01-21T16:12:14.276Z,1.75
2023-01-21T16:15:19.300Z,1.65
2023-01-21T16:17:53.555Z,1.57
2023-01-21T16:20:20.862Z,1.53
2023-01-21T16:22:51.546Z,1.51
2023-01-21T16:25:22.521Z,1.50
2023-01-21T16:27:55.639Z,1.51
2023-01-21T16:30:31.945Z,1.51
2023-01-21T16:33:16.021Z,1.50
2023-01-21T16:35:49.874Z,1.48
2023-01-21T16:38:20.240Z,1.46
2023-01-21T16:40:49.370Z,1.45
2023-01-21T16:43:27.380Z,1.41
2023-01-21T16:45:57.532Z,1.38
2023-01-21T16:48:28.690Z,1.35
2023-01-21T16:50:56.234Z,1.33
2023-01-21T16:53:24.418Z,1.30
2023-01-21T16:55:54.408Z,1.25
2023-01-21T16:58:29.113Z,1.18
2023-01-21T17:01:16.713Z,1.06
2023-01-21T17:03:46.627Z,0.98
2023-01-21T17:06:19.620Z,0.87
2023-01-21T17:08:53.319Z,0.76
2023-01-21T17:11:22.345Z,0.71
2023-01-21T17:13:49.888Z,0.66
2023-01-21T17:16:28.784Z,0.53
2023-01-21T17:19:21.503Z,0.41
2023-01-21T17:21:55.083Z,0.35
2023-01-21T17:24:30.442Z,0.35
2023-01-21T17:27:03.925Z,0.35
2023-01-21T17:29:33.304Z,0.35
2023-01-21T17:32:06.371Z,0.32
2023-01-21T17:34:37.468Z,0.31
2023-01-21T17:37:43.425Z,0.30
2023-01-21T17:40:40.805Z,0.33
2023-01-21T17:43:20.849Z,0.29
2023-01-21T17:45:49.688Z,0.27
2023-01-21T17:48:29.445Z,0.26
2023-01-21T17:51:26.520Z,0.27
2023-01-21T17:54:06.020Z,0.27
2023-01-21T17:56:34.293Z,0.27
2023-01-21T17:59:04.536Z,0.28
2023-01-21T18:01:34.567Z,0.28
2023-01-21T18:04:02.718Z,0.28
2023-01-21T18:06:29.865Z,0.24
2023-01-21T18:08:57.572Z,0.24
2023-01-21T18:11:25.325Z,0.25
2023-01-21T18:13:53.871Z,0.25
2023-01-21T18:16:21.794Z,0.26
2023-01-21T18:18:50.034Z,0.27
2023-01-21T18:21:19.701Z,0.27
2023-01-21T18:23:47.927Z,0.26
2023-01-21T18:26:25.041Z,0.26
2023-01-21T18:28:52.630Z,0.24
2023-01-21T18:31:20.756Z,0.18
2023-01-21T18:33:48.165Z,0.12
2023-01-21T18:36:16.125Z,0.08
2023-01-21T18:38:44.648Z,0.03
2023-01-21T18:41:12.914Z,-0.03
2023-01-21T18:43:41.446Z,-0.07
2023-01-21T18:46:19.985Z,-0.08
2023-01-21T18:48:47.304Z,-0.07
2023-01-21T18:51:14.613Z,-0.06
2023-01-21T18:53:41.668Z,-0.07
2023-01-21T18:56:13.793Z,-0.11
2023-01-21T18:58:41.928Z,-0.15
2023-01-21T19:01:21.998Z,-0.14
2023-01-21T19:03:53.431Z,-0.14
2023-01-21T19:06:24.351Z,-0.15
2023-01-21T19:08:51.603Z,-0.15
2023-01-21T19:11:18.722Z,-0.15
2023-01-21T19:13:46.412Z,-0.18
2023-01-21T19:16:17.537Z,-0.21
2023-01-21T19:18:46.166Z,-0.23
2023-01-21T19:21:13.542Z,-0.22
2023-01-21T19:23:41.461Z,-0.19
2023-01-21T19:26:11.858Z,-0.17
2023-01-21T19:28:39.084Z,-0.16
2023-01-21T19:31:06.785Z,-0.13
2023-01-21T19:33:34.210Z,-0.11
2023-01-21T19:36:10.591Z,-0.10
2023-01-21T19:38:38.743Z,-0.08
2023-01-21T19:41:06.591Z,-0.09
2023-01-21T19:43:34.096Z,-0.14
2023-01-21T19:46:01.614Z,-0.17
2023-01-21T19:48:28.911Z,-0.18
2023-01-21T19:50:56.220Z,-0.21
2023-01-21T19:53:24.053Z,-0.24
2023-01-21T19:55:51.520Z,-0.29
2023-01-21T19:58:22.104Z,-0.33
2023-01-21T20:00:52.960Z,-0.36
2023-01-21T20:03:23.836Z,-0.38
2023-01-21T20:05:57.275Z,-0.45
2023-01-21T20:08:28.125Z,-0.45
2023-01-21T20:10:55.672Z,-0.48
2023-01-21T20:13:23.436Z,-0.50
2023-01-21T20:15:51.777Z,-0.53
2023-01-21T20:18:24.122Z,-0.55
2023-01-21T20:20:52.469Z,-0.56
2023-01-21T20:23:23.014Z,-0.58
2023-01-21T20:25:54.485Z,-0.59
2023-01-21T20:28:24.795Z,-0.61
2023-01-21T20:30:53.858Z,-0.62
2023-01-21T20:33:23.263Z,-0.64
2023-01-21T20:35:54.348Z,-0.67
2023-01-21T20:38:31.053Z,-0.70
2023-01-21T20:40:59.854Z,-0.74
2023-01-21T20:43:28.483Z,-0.76
2023-01-21T20:46:04.146Z,-0.78
2023-01-21T20:48:36.049Z,-0.79
2023-01-21T20:51:03.612Z,-0.82
2023-01-21T20:53:31.386Z,-0.84
2023-01-21T20:56:02.555Z,-0.84
2023-01-21T20:58:29.783Z,-0.85
2023-01-21T21:00:56.925Z,-0.86
2023-01-21T21:03:24.302Z,-0.87
2023-01-21T21:05:51.450Z,-0.87
2023-01-21T21:08:21.061Z,-0.87
2023-01-21T21:10:50.304Z,-0.86
2023-01-21T21:13:17.729Z,-0.85
2023-01-21T21:15:46.625Z,-0.84
2023-01-21T21:18:14.277Z,-0.82
2023-01-21T21:20:42.130Z,-0.83
2023-01-21T21:23:13.994Z,-0.83
2023-01-21T21:25:46.560Z,-0.84
2023-01-21T21:28:18.360Z,-0.84
2023-01-21T21:30:45.560Z,-0.87
2023-01-21T21:33:21.765Z,-0.89
2023-01-21T21:35:49.369Z,-0.91
2023-01-21T21:38:21.372Z,-0.91
2023-01-21T21:40:52.451Z,-0.89
2023-01-21T21:43:35.025Z,-0.89
2023-01-21T21:46:30.010Z,-0.89
2023-01-21T21:48:57.375Z,-0.89
2023-01-21T21:51:24.749Z,-0.89
2023-01-21T21:53:51.912Z,-0.89
2023-01-21T21:56:22.001Z,-0.87
2023-01-21T21:58:50.422Z,-0.86
2023-01-21T22:01:20.424Z,-0.89
2023-01-21T22:03:48.444Z,-0.91
2023-01-21T22:06:18.116Z,-0.94
2023-01-21T22:08:45.602Z,-0.95
2023-01-21T22:11:18.382Z,-0.94
2023-01-21T22:13:50.998Z,-0.92
2023-01-21T22:16:29.442Z,-0.90
2023-01-21T22:18:58.350Z,-0.87
2023-01-21T22:21:28.115Z,-0.86
2023-01-21T22:23:55.345Z,-0.82
2023-01-21T22:26:24.390Z,-0.79
2023-01-21T22:28:52.506Z,-0.75
2023-01-21T22:31:22.369Z,-0.70
2023-01-21T22:33:49.843Z,-0.65
2023-01-21T22:36:19.507Z,-0.60
2023-01-21T22:38:47.669Z,-0.55
2023-01-21T22:41:17.547Z,-0.50
2023-01-21T22:43:47.812Z,-0.46
2023-01-21T22:46:17.789Z,-0.43
2023-01-21T22:48:46.133Z,-0.40
2023-01-21T22:51:16.154Z,-0.37
2023-01-21T22:53:46.078Z,-0.33
2023-01-21T22:56:15.345Z,-0.29
2023-01-21T22:58:43.317Z,-0.29
2023-01-21T23:01:26.059Z,-0.28
2023-01-21T23:03:53.801Z,-0.26
2023-01-21T23:06:21.586Z,-0.25
2023-01-21T23:08:49.038Z,-0.21
2023-01-21T23:11:18.553Z,-0.16
2023-01-21T23:13:48.705Z,-0.12
2023-01-21T23:16:18.533Z,-0.07
2023-01-21T23:18:46.242Z,-0.02
2023-01-21T23:21:19.672Z,0.03
2023-01-21T23:23:46.957Z,0.07
2023-01-21T23:26:14.889Z,0.10
2023-01-21T23:28:42.738Z,0.14
2023-01-21T23:31:14.508Z,0.18
2023-01-21T23:33:42.190Z,0.22
2023-01-21T23:36:12.297Z,0.24
2023-01-21T23:38:40.594Z,0.26
2023-01-21T23:41:10.760Z,0.27
2023-01-21T23:43:38.578Z,0.29
2023-01-21T23:46:15.815Z,0.35
2023-01-21T23:48:43.311Z,0.39
2023-01-21T23:51:13.247Z,0.44
2023-01-21T23:53:40.546Z,0.47
2023-01-21T23:56:08.267Z,0.48
2023-01-21T23:58:35.514Z,0.50
